Time,TemperatureF,DewpointF,PressureIn,WindDirection,WindDirectionDegrees,WindSpeedMPH,WindSpeedGustMPH,Humidity,HourlyPrecipIn,Conditions,Clouds,dailyrainin,SoftwareType,DateUTC
2013-05-03 00:01:00,26.0,17.0,30.42,NNW,344,1.0,-999.0,68,-99.99,,,-99.99,,2013-05-03 06:01:00,
2013-05-03 00:11:00,26.0,17.0,30.42,NNW,344,1.0,-999.0,68,-99.99,,,-99.99,,2013-05-03 06:11:00,
2013-05-03 00:21:00,25.0,17.0,30.42,NE,50,1.0,-999.0,72,-99.99,,,-99.99,,2013-05-03 06:21:00,
2013-05-03 00:31:00,25.0,17.0,30.42,NE,50,0.0,-999.0,72,-99.99,,,-99.99,,2013-05-03 06:31:00,
2013-05-03 00:42:00,25.0,17.0,30.42,NE,50,0.0,-999.0,72,-99.99,,,-99.99,,2013-05-03 06:42:00,
2013-05-03 00:52:00,25.0,18.0,30.42,NE,50,1.0,-999.0,73,-99.99,,,-99.99,,2013-05-03 06:52:00,
2013-05-03 01:01:00,24.0,17.0,30.41,North,360,2.0,-999.0,73,-99.99,,,-99.99,,2013-05-03 07:01:00,
2013-05-03 01:11:00,24.0,17.0,30.41,North,360,2.0,-999.0,73,-99.99,,,-99.99,,2013-05-03 07:11:00,
2013-05-03 01:21:00,25.0,18.0,30.41,NNE,17,1.0,-999.0,73,-99.99,,,-99.99,,2013-05-03 07:21:00,
2013-05-03 01:31:00,24.0,18.0,30.41,NNE,20,2.0,-999.0,76,-99.99,,,-99.99,,2013-05-03 07:31:00,
2013-05-03 01:42:00,24.0,18.0,30.41,NNE,20,2.0,-999.0,76,-99.99,,,-99.99,,2013-05-03 07:42:00,
2013-05-03 01:52:00,27.0,20.0,30.40,NNW,346,2.0,-999.0,73,-99.99,,,-99.99,,2013-05-03 07:52:00,
2013-05-03 02:01:00,27.0,19.0,30.41,NNW,332,0.0,-999.0,72,-99.99,,,-99.99,,2013-05-03 08:01:00,
2013-05-03 02:11:00,27.0,19.0,30.41,NNW,332,0.0,-999.0,72,-99.99,,,-99.99,,2013-05-03 08:11:00,
2013-05-03 02:21:00,25.0,18.0,30.40,NNW,332,0.0,-999.0,74,-99.99,,,-99.99,,2013-05-03 08:21:00,
2013-05-03 02:31:00,24.0,17.0,30.40,NNE,15,0.0,-999.0,73,-99.99,,,-99.99,,2013-05-03 08:31:00,
2013-05-03 02:41:00,24.0,17.0,30.40,NNE,15,0.0,-999.0,73,-99.99,,,-99.99,,2013-05-03 08:41:00,
2013-05-03 02:52:00,23.0,17.0,30.39,NNE,15,0.0,-999.0,78,-99.99,,,-99.99,,2013-05-03 08:52:00,
2013-05-03 03:01:00,22.0,17.0,30.38,NNE,15,0.0,-999.0,80,-99.99,,,-99.99,,2013-05-03 09:01:00,
2013-05-03 03:11:00,22.0,17.0,30.38,NNE,15,0.0,-999.0,80,-99.99,,,-99.99,,2013-05-03 09:11:00,
2013-05-03 03:21:00,23.0,17.0,30.37,NNE,15,1.0,-999.0,79,-99.99,,,-99.99,,2013-05-03 09:21:00,
2013-05-03 03:32:00,23.0,17.0,30.37,NNE,15,1.0,-999.0,77,-99.99,,,-99.99,,2013-05-03 09:32:00,
2013-05-03 03:42:00,23.0,17.0,30.37,NNE,15,1.0,-999.0,77,-99.99,,,-99.99,,2013-05-03 09:42:00,
2013-05-03 03:53:00,23.0,17.0,30.36,NNE,16,1.0,-999.0,77,-99.99,,,-99.99,,2013-05-03 09:53:00,
2013-05-03 04:02:00,22.0,16.0,30.35,NNE,16,1.0,-999.0,79,-99.99,,,-99.99,,2013-05-03 10:02:00,
2013-05-03 04:12:00,22.0,16.0,30.35,NNE,16,1.0,-999.0,79,-99.99,,,-99.99,,2013-05-03 10:12:00,
2013-05-03 04:22:00,23.0,18.0,30.35,NNE,16,0.0,-999.0,80,-99.99,,,-99.99,,2013-05-03 10:22:00,
2013-05-03 04:32:00,23.0,17.0,30.35,NNE,16,1.0,-999.0,79,-99.99,,,-99.99,,2013-05-03 10:32:00,
2013-05-03 04:42:00,23.0,17.0,30.35,NNE,16,1.0,-999.0,79,-99.99,,,-99.99,,2013-05-03 10:42:00,
2013-05-03 04:52:00,23.0,18.0,30.34,NNE,16,0.0,-999.0,81,-99.99,,,-99.99,,2013-05-03 10:52:00,
2013-05-03 05:02:00,24.0,18.0,30.34,NNE,16,0.0,-999.0,78,-99.99,,,-99.99,,2013-05-03 11:02:00,
2013-05-03 05:11:00,24.0,18.0,30.34,NNE,16,0.0,-999.0,78,-99.99,,,-99.99,,2013-05-03 11:11:00,
2013-05-03 05:21:00,24.0,18.0,30.34,NNE,16,0.0,-999.0,78,-99.99,,,-99.99,,2013-05-03 11:21:00,
2013-05-03 05:31:00,22.0,17.0,30.34,NNE,16,0.0,-999.0,81,-99.99,,,-99.99,,2013-05-03 11:31:00,
2013-05-03 05:41:00,22.0,17.0,30.34,NNE,16,0.0,-999.0,81,-99.99,,,-99.99,,2013-05-03 11:41:00,
2013-05-03 05:52:00,22.0,17.0,30.34,NNE,16,1.0,-999.0,82,-99.99,,,-99.99,,2013-05-03 11:52:00,
2013-05-03 06:01:00,21.0,17.0,30.33,NNE,16,1.0,-999.0,83,-99.99,,,-99.99,,2013-05-03 12:01:00,
2013-05-03 06:11:00,21.0,17.0,30.33,NNE,16,1.0,-999.0,83,-99.99,,,-99.99,,2013-05-03 12:11:00,
2013-05-03 06:21:00,22.0,17.0,30.33,NNE,16,1.0,-999.0,82,-99.99,,,-99.99,,2013-05-03 12:21:00,
2013-05-03 06:32:00,23.0,17.0,30.32,NNE,16,1.0,-999.0,79,-99.99,,,-99.99,,2013-05-03 12:32:00,
2013-05-03 06:41:00,23.0,17.0,30.32,NNE,16,1.0,-999.0,79,-99.99,,,-99.99,,2013-05-03 12:41:00,
2013-05-03 06:52:00,22.0,18.0,30.33,NNE,16,0.0,-999.0,84,-99.99,,,-99.99,,2013-05-03 12:52:00,
2013-05-03 07:01:00,24.0,20.0,30.32,NNE,16,0.0,-999.0,84,-99.99,,,-99.99,,2013-05-03 13:01:00,
2013-05-03 07:11:00,24.0,20.0,30.32,NNE,16,0.0,-999.0,84,-99.99,,,-99.99,,2013-05-03 13:11:00,
2013-05-03 07:22:00,25.0,21.0,30.32,NNE,16,0.0,-999.0,84,-99.99,,,-99.99,,2013-05-03 13:22:00,
2013-05-03 07:31:00,27.0,22.0,30.31,NNE,16,0.0,-999.0,80,-99.99,,,-99.99,,2013-05-03 13:31:00,
2013-05-03 07:42:00,27.0,22.0,30.31,NNE,16,0.0,-999.0,80,-99.99,,,-99.99,,2013-05-03 13:42:00,
2013-05-03 07:52:00,29.0,22.0,30.33,North,355,1.0,-999.0,74,-99.99,,,-99.99,,2013-05-03 13:52:00,
2013-05-03 08:01:00,29.0,21.0,30.33,NW,326,1.0,-999.0,71,-99.99,,,-99.99,,2013-05-03 14:01:00,
2013-05-03 08:11:00,29.0,21.0,30.33,NW,326,1.0,-999.0,71,-99.99,,,-99.99,,2013-05-03 14:11:00,
2013-05-03 08:21:00,30.0,21.0,30.32,NNW,327,1.0,-999.0,68,-99.99,,,-99.99,,2013-05-03 14:21:00,
2013-05-03 08:31:00,32.0,20.0,30.32,NNE,13,3.0,-999.0,61,-99.99,,,-99.99,,2013-05-03 14:31:00,
2013-05-03 08:41:00,32.0,20.0,30.32,NNE,13,3.0,-999.0,61,-99.99,,,-99.99,,2013-05-03 14:41:00,
2013-05-03 08:52:00,34.0,20.0,30.31,NW,317,3.0,-999.0,56,-99.99,,,-99.99,,2013-05-03 14:52:00,
2013-05-03 09:01:00,35.0,20.0,30.30,NNW,338,2.0,-999.0,55,-99.99,,,-99.99,,2013-05-03 15:01:00,
2013-05-03 09:11:00,35.0,20.0,30.30,NNW,338,2.0,-999.0,55,-99.99,,,-99.99,,2013-05-03 15:11:00,
2013-05-03 09:21:00,37.0,21.0,30.29,NW,320,1.0,-999.0,51,-99.99,,,-99.99,,2013-05-03 15:21:00,
2013-05-03 09:32:00,37.0,19.0,30.29,NW,322,1.0,-999.0,47,-99.99,,,-99.99,,2013-05-03 15:32:00,
2013-05-03 09:43:00,37.0,19.0,30.29,NW,322,1.0,-999.0,47,-99.99,,,-99.99,,2013-05-03 15:43:00,
2013-05-03 09:53:00,39.0,19.0,30.28,NW,317,0.0,-999.0,45,-99.99,,,-99.99,,2013-05-03 15:53:00,
2013-05-03 10:02:00,41.0,20.0,30.27,West,265,1.0,-999.0,43,-99.99,,,-99.99,,2013-05-03 16:02:00,
2013-05-03 10:12:00,41.0,20.0,30.27,West,265,1.0,-999.0,43,-99.99,,,-99.99,,2013-05-03 16:12:00,
2013-05-03 10:22:00,41.0,20.0,30.26,ESE,118,0.0,-999.0,42,-99.99,,,-99.99,,2013-05-03 16:22:00,
2013-05-03 10:32:00,43.0,21.0,30.26,SSE,157,1.0,-999.0,41,-99.99,,,-99.99,,2013-05-03 16:32:00,
2013-05-03 10:41:00,43.0,21.0,30.26,SSE,157,1.0,-999.0,41,-99.99,,,-99.99,,2013-05-03 16:41:00,
2013-05-03 10:52:00,43.0,20.0,30.25,SW,225,1.0,-999.0,39,-99.99,,,-99.99,,2013-05-03 16:52:00,
2013-05-03 11:02:00,45.0,20.0,30.24,SSW,192,1.0,-999.0,37,-99.99,,,-99.99,,2013-05-03 17:02:00,
2013-05-03 11:11:00,45.0,20.0,30.24,SSW,192,1.0,-999.0,37,-99.99,,,-99.99,,2013-05-03 17:11:00,
2013-05-03 11:22:00,46.0,20.0,30.23,South,176,1.0,-999.0,35,-99.99,,,-99.99,,2013-05-03 17:22:00,
2013-05-03 11:31:00,46.0,21.0,30.24,WSW,252,3.0,-999.0,36,-99.99,,,-99.99,,2013-05-03 17:31:00,
2013-05-03 11:42:00,46.0,21.0,30.24,WSW,252,3.0,-999.0,36,-99.99,,,-99.99,,2013-05-03 17:42:00,
2013-05-03 11:52:00,47.0,21.0,30.24,SSW,207,1.0,-999.0,35,-99.99,,,-99.99,,2013-05-03 17:52:00,
2013-05-03 12:01:00,47.0,21.0,30.24,SSW,207,1.0,-999.0,35,-99.99,,,-99.99,,2013-05-03 18:01:00,
2013-05-03 12:11:00,47.0,21.0,30.24,SSW,207,1.0,-999.0,35,-99.99,,,-99.99,,2013-05-03 18:11:00,
2013-05-03 12:21:00,51.0,22.0,30.21,SW,227,1.0,-999.0,32,-99.99,,,-99.99,,2013-05-03 18:21:00,
2013-05-03 12:32:00,52.0,19.0,30.20,SE,137,2.0,-999.0,27,-99.99,,,-99.99,,2013-05-03 18:32:00,
2013-05-03 12:42:00,52.0,19.0,30.20,SE,137,2.0,-999.0,27,-99.99,,,-99.99,,2013-05-03 18:42:00,
2013-05-03 12:52:00,54.0,21.0,30.19,ESE,107,1.0,-999.0,27,-99.99,,,-99.99,,2013-05-03 18:52:00,
2013-05-03 13:01:00,55.0,17.0,30.18,SE,126,2.0,-999.0,22,-99.99,,,-99.99,,2013-05-03 19:01:00,
2013-05-03 13:11:00,55.0,17.0,30.18,SE,126,2.0,-999.0,22,-99.99,,,-99.99,,2013-05-03 19:11:00,
2013-05-03 13:21:00,56.0,19.0,30.17,NE,44,1.0,-999.0,23,-99.99,,,-99.99,,2013-05-03 19:21:00,
2013-05-03 13:31:00,57.0,19.0,30.16,SE,133,4.0,-999.0,22,-99.99,,,-99.99,,2013-05-03 19:31:00,
2013-05-03 13:41:00,57.0,19.0,30.16,SE,133,4.0,-999.0,22,-99.99,,,-99.99,,2013-05-03 19:41:00,
2013-05-03 13:52:00,57.0,20.0,30.14,SW,230,1.0,-999.0,23,-99.99,,,-99.99,,2013-05-03 19:52:00,
2013-05-03 14:02:00,58.0,19.0,30.14,SW,221,3.0,-999.0,22,-99.99,,,-99.99,,2013-05-03 20:02:00,
2013-05-03 14:11:00,58.0,19.0,30.14,SW,221,3.0,-999.0,22,-99.99,,,-99.99,,2013-05-03 20:11:00,
2013-05-03 14:21:00,60.0,22.0,30.13,SSE,163,3.0,-999.0,23,-99.99,,,-99.99,,2013-05-03 20:21:00,
2013-05-03 14:31:00,60.0,19.0,30.12,East,84,2.0,-999.0,20,-99.99,,,-99.99,,2013-05-03 20:31:00,
2013-05-03 14:41:00,60.0,19.0,30.12,East,84,2.0,-999.0,20,-99.99,,,-99.99,,2013-05-03 20:41:00,
2013-05-03 14:52:00,61.0,21.0,30.14,SSE,148,2.0,-999.0,21,-99.99,,,-99.99,,2013-05-03 20:52:00,
2013-05-03 15:01:00,60.0,20.0,30.13,SE,143,2.0,-999.0,21,-99.99,,,-99.99,,2013-05-03 21:01:00,
2013-05-03 15:11:00,60.0,20.0,30.13,SE,143,2.0,-999.0,21,-99.99,,,-99.99,,2013-05-03 21:11:00,
2013-05-03 15:21:00,61.0,20.0,30.12,NW,306,3.0,-999.0,20,-99.99,,,-99.99,,2013-05-03 21:21:00,
2013-05-03 15:32:00,58.0,18.0,30.11,NNE,25,3.0,-999.0,21,-99.99,,,-99.99,,2013-05-03 21:32:00,
2013-05-03 15:42:00,58.0,18.0,30.11,NNE,25,3.0,-999.0,21,-99.99,,,-99.99,,2013-05-03 21:42:00,
2013-05-03 15:52:00,58.0,18.0,30.10,NE,47,2.0,-999.0,21,-99.99,,,-99.99,,2013-05-03 21:52:00,
2013-05-03 16:02:00,58.0,18.0,30.10,NE,47,2.0,-999.0,21,-99.99,,,-99.99,,2013-05-03 22:02:00,
2013-05-03 16:12:00,58.0,18.0,30.10,NE,47,2.0,-999.0,21,-99.99,,,-99.99,,2013-05-03 22:12:00,
2013-05-03 16:22:00,58.0,18.0,30.10,NE,47,2.0,-999.0,21,-99.99,,,-99.99,,2013-05-03 22:22:00,
2013-05-03 16:32:00,58.0,18.0,30.10,NE,47,2.0,-999.0,21,-99.99,,,-99.99,,2013-05-03 22:32:00,
2013-05-03 16:52:00,56.0,19.0,30.08,West,271,10.0,-999.0,23,-99.99,,,-99.99,,2013-05-03 22:52:00,
2013-05-03 17:01:00,55.0,19.0,30.08,NW,322,10.0,-999.0,24,-99.99,,,-99.99,,2013-05-03 23:01:00,
2013-05-03 17:11:00,55.0,19.0,30.08,NW,322,10.0,-999.0,24,-99.99,,,-99.99,,2013-05-03 23:11:00,
2013-05-03 17:21:00,55.0,20.0,30.08,NW,304,8.0,-999.0,25,-99.99,,,-99.99,,2013-05-03 23:21:00,
2013-05-03 17:31:00,55.0,20.0,30.08,West,273,11.0,-999.0,25,-99.99,,,-99.99,,2013-05-03 23:31:00,
2013-05-03 17:41:00,55.0,20.0,30.08,West,273,11.0,-999.0,25,-99.99,,,-99.99,,2013-05-03 23:41:00,
2013-05-03 17:52:00,55.0,19.0,30.09,North,5,7.0,-999.0,24,-99.99,,,-99.99,,2013-05-03 23:52:00,
2013-05-03 18:01:00,55.0,19.0,30.08,WNW,291,2.0,-999.0,24,-99.99,,,-99.99,,2013-05-04 00:01:00,
2013-05-03 18:11:00,55.0,19.0,30.08,WNW,291,2.0,-999.0,24,-99.99,,,-99.99,,2013-05-04 00:11:00,
2013-05-03 18:22:00,55.0,19.0,30.08,ENE,60,3.0,-999.0,24,-99.99,,,-99.99,,2013-05-04 00:22:00,
2013-05-03 18:31:00,55.0,21.0,30.08,ENE,64,5.0,-999.0,26,-99.99,,,-99.99,,2013-05-04 00:31:00,
2013-05-03 18:41:00,55.0,21.0,30.08,ENE,64,5.0,-999.0,26,-99.99,,,-99.99,,2013-05-04 00:41:00,
2013-05-03 18:52:00,55.0,21.0,30.08,ENE,75,1.0,-999.0,26,-99.99,,,-99.99,,2013-05-04 00:52:00,
2013-05-03 19:01:00,54.0,21.0,30.08,East,81,4.0,-999.0,27,-99.99,,,-99.99,,2013-05-04 01:01:00,
2013-05-03 19:11:00,54.0,21.0,30.08,East,81,4.0,-999.0,27,-99.99,,,-99.99,,2013-05-04 01:11:00,
2013-05-03 19:21:00,53.0,21.0,30.08,ENE,78,4.0,-999.0,28,-99.99,,,-99.99,,2013-05-04 01:21:00,
2013-05-03 19:31:00,52.0,22.0,30.08,NE,49,2.0,-999.0,30,-99.99,,,-99.99,,2013-05-04 01:31:00,
2013-05-03 19:41:00,52.0,22.0,30.08,NE,49,2.0,-999.0,30,-99.99,,,-99.99,,2013-05-04 01:41:00,
2013-05-03 19:52:00,52.0,25.0,30.08,NE,49,0.0,-999.0,34,-99.99,,,-99.99,,2013-05-04 01:52:00,
2013-05-03 20:02:00,51.0,21.0,30.08,NW,309,1.0,-999.0,31,-99.99,,,-99.99,,2013-05-04 02:02:00,
2013-05-03 20:11:00,51.0,21.0,30.08,NW,309,1.0,-999.0,31,-99.99,,,-99.99,,2013-05-04 02:11:00,
2013-05-03 20:21:00,51.0,21.0,30.08,ESE,123,6.0,-999.0,30,-99.99,,,-99.99,,2013-05-04 02:21:00,
2013-05-03 20:32:00,50.0,21.0,30.07,ENE,58,4.0,-999.0,32,-99.99,,,-99.99,,2013-05-04 02:32:00,
2013-05-03 20:41:00,50.0,21.0,30.07,ENE,58,4.0,-999.0,32,-99.99,,,-99.99,,2013-05-04 02:41:00,
2013-05-03 20:52:00,49.0,23.0,30.07,ENE,57,1.0,-999.0,35,-99.99,,,-99.99,,2013-05-04 02:52:00,
2013-05-03 21:01:00,47.0,22.0,30.07,ENE,57,0.0,-999.0,37,-99.99,,,-99.99,,2013-05-04 03:01:00,
2013-05-03 21:11:00,47.0,22.0,30.07,ENE,57,0.0,-999.0,37,-99.99,,,-99.99,,2013-05-04 03:11:00,
2013-05-03 21:21:00,46.0,22.0,30.07,NNE,14,0.0,-999.0,39,-99.99,,,-99.99,,2013-05-04 03:21:00,
2013-05-03 21:32:00,45.0,23.0,30.07,NNE,24,1.0,-999.0,41,-99.99,,,-99.99,,2013-05-04 03:32:00,
2013-05-03 21:42:00,45.0,23.0,30.07,NNE,24,1.0,-999.0,41,-99.99,,,-99.99,,2013-05-04 03:42:00,
2013-05-03 21:52:00,44.0,24.0,30.07,North,360,0.0,-999.0,45,-99.99,,,-99.99,,2013-05-04 03:52:00,
2013-05-03 22:02:00,44.0,23.0,30.08,NNW,333,1.0,-999.0,44,-99.99,,,-99.99,,2013-05-04 04:02:00,
2013-05-03 22:12:00,44.0,23.0,30.08,NNW,333,1.0,-999.0,44,-99.99,,,-99.99,,2013-05-04 04:12:00,
2013-05-03 22:22:00,45.0,24.0,30.08,North,360,2.0,-999.0,43,-99.99,,,-99.99,,2013-05-04 04:22:00,
2013-05-03 22:32:00,44.0,24.0,30.08,NNW,341,4.0,-999.0,45,-99.99,,,-99.99,,2013-05-04 04:32:00,
2013-05-03 22:42:00,44.0,24.0,30.08,NNW,341,4.0,-999.0,45,-99.99,,,-99.99,,2013-05-04 04:42:00,
2013-05-03 22:52:00,44.0,24.0,30.08,North,355,3.0,-999.0,45,-99.99,,,-99.99,,2013-05-04 04:52:00,
2013-05-03 23:02:00,43.0,25.0,30.08,NW,319,1.0,-999.0,48,-99.99,,,-99.99,,2013-05-04 05:02:00,
2013-05-03 23:11:00,43.0,24.0,30.08,NNW,348,2.0,-999.0,47,-99.99,,,-99.99,,2013-05-04 05:11:00,
2013-05-03 23:21:00,43.0,24.0,30.08,NNW,348,2.0,-999.0,47,-99.99,,,-99.99,,2013-05-04 05:21:00,
2013-05-03 23:32:00,44.0,25.0,30.10,NNW,332,2.0,-999.0,47,-99.99,,,-99.99,,2013-05-04 05:32:00,
2013-05-03 23:42:00,44.0,25.0,30.10,NNW,332,2.0,-999.0,47,-99.99,,,-99.99,,2013-05-04 05:42:00,
2013-05-03 23:52:00,44.0,26.0,30.09,North,5,3.0,-999.0,49,-99.99,,,-99.99,,2013-05-04 05:52:00,